Terminal Aerodrome Forecast
Issued by NWS Grand Forks, ND

Home | Current Version | Previous Version | Text Only | Print | Product List | Glossary Off
Versions: 1 2 3 4 5 6 7 8 9 10 11 12

583
FTUS43 KFGF 291127
TAFFAR
TAF
KFAR 291127Z 2912/3012 10004KT P6SM SCT200
     FM291600 01009KT P6SM SKC=

USA.gov is the U.S. government's official web portal to all federal, state and local government web resources and services.